createdAt,value
2019-01-21T00:01:38.307Z,6.87
2019-01-21T00:03:43.367Z,7.13
2019-01-21T00:05:48.884Z,8.03
2019-01-21T00:07:54.107Z,6.80
2019-01-21T00:09:59.163Z,7.40
2019-01-21T00:12:04.274Z,7.20
2019-01-21T00:14:09.419Z,7.27
2019-01-21T00:16:14.767Z,7.17
2019-01-21T00:18:19.900Z,7.27
2019-01-21T00:20:24.956Z,7.47
2019-01-21T00:22:29.838Z,7.70
2019-01-21T00:24:34.882Z,7.50
2019-01-21T00:26:40.194Z,7.87
2019-01-21T00:28:45.106Z,7.70
2019-01-21T00:30:50.197Z,7.40
2019-01-21T00:32:55.089Z,8.03
2019-01-21T00:35:00.233Z,7.30
2019-01-21T00:37:05.343Z,7.23
2019-01-21T00:39:10.468Z,7.20
2019-01-21T00:41:15.513Z,7.83
2019-01-21T00:43:20.547Z,7.73
2019-01-21T00:45:25.666Z,7.00
2019-01-21T00:47:30.646Z,6.73
2019-01-21T00:49:35.808Z,7.10
2019-01-21T00:51:40.707Z,7.47
2019-01-21T00:53:45.952Z,6.97
2019-01-21T00:55:51.318Z,7.20
2019-01-21T00:57:56.702Z,6.87
2019-01-21T01:00:01.692Z,7.43
2019-01-21T01:02:07.201Z,7.47
2019-01-21T01:04:12.293Z,7.17
2019-01-21T01:06:17.403Z,6.67
2019-01-21T01:08:22.387Z,7.00
2019-01-21T01:10:27.388Z,6.67
2019-01-21T01:12:32.332Z,6.60
2019-01-21T01:14:37.455Z,7.23
2019-01-21T01:16:42.669Z,6.83
2019-01-21T01:18:47.634Z,6.90
2019-01-21T01:20:52.523Z,7.40
2019-01-21T01:22:57.513Z,7.30
2019-01-21T01:25:02.613Z,6.97
2019-01-21T01:27:07.749Z,7.73
2019-01-21T01:29:12.715Z,7.10
2019-01-21T01:31:18.093Z,7.30
2019-01-21T01:33:23.256Z,7.00
2019-01-21T01:35:28.359Z,6.93
2019-01-21T01:37:33.488Z,7.80
2019-01-21T01:39:38.391Z,7.10
2019-01-21T01:41:43.488Z,6.97
2019-01-21T01:43:48.555Z,7.37
2019-01-21T01:45:53.590Z,6.87
2019-01-21T01:48:06.316Z,6.60
2019-01-21T01:50:11.933Z,6.53
2019-01-21T01:52:17.305Z,7.07
2019-01-21T01:54:22.412Z,6.70
2019-01-21T01:56:27.740Z,7.00
2019-01-21T01:58:32.813Z,6.50
2019-01-21T02:00:39.055Z,6.87
2019-01-21T02:02:46.369Z,7.07
2019-01-21T02:05:00.499Z,7.10
2019-01-21T02:07:07.941Z,7.20
2019-01-21T02:09:13.616Z,6.80
2019-01-21T02:11:18.743Z,6.97
2019-01-21T02:13:23.873Z,6.67
2019-01-21T02:15:29.323Z,6.23
2019-01-21T02:17:34.442Z,7.00
2019-01-21T02:19:42.241Z,6.20
2019-01-21T02:21:48.550Z,7.13
2019-01-21T02:24:04.095Z,6.57
2019-01-21T02:26:22.216Z,6.40
2019-01-21T02:29:01.957Z,6.40
2019-01-21T02:31:55.562Z,6.30
2019-01-21T02:34:54.520Z,6.23
2019-01-21T02:37:42.883Z,5.60
2019-01-21T02:40:52.509Z,5.30
2019-01-21T02:43:28.987Z,5.90
2019-01-21T02:46:25.878Z,5.63
2019-01-21T02:49:32.603Z,5.17
2019-01-21T02:52:04.121Z,5.70
2019-01-21T02:54:52.446Z,5.30
2019-01-21T02:57:33.634Z,5.47
2019-01-21T03:00:30.003Z,6.13
2019-01-21T03:03:50.492Z,5.87
2019-01-21T03:07:01.267Z,5.20
2019-01-21T03:09:53.284Z,5.27
2019-01-21T03:12:54.629Z,5.47
2019-01-21T03:15:48.354Z,5.47
2019-01-21T03:19:01.932Z,5.70
2019-01-21T03:21:41.094Z,5.53
2019-01-21T03:24:37.028Z,5.43
2019-01-21T03:27:41.564Z,5.40
2019-01-21T03:30:29.592Z,5.33
2019-01-21T03:33:40.858Z,5.57
2019-01-21T03:36:35.068Z,4.90
2019-01-21T03:39:05.929Z,5.27
2019-01-21T03:41:28.253Z,5.47
2019-01-21T03:44:26.547Z,5.17
2019-01-21T03:47:40.030Z,6.00
2019-01-21T03:50:45.332Z,5.27
2019-01-21T03:53:37.588Z,4.43
2019-01-21T03:55:43.015Z,4.80
2019-01-21T03:58:43.586Z,4.90
2019-01-21T04:01:23.633Z,4.93
2019-01-21T04:04:40.987Z,5.13
2019-01-21T04:07:35.356Z,4.77
2019-01-21T04:10:16.319Z,4.97
2019-01-21T04:13:04.616Z,5.13
2019-01-21T04:16:24.156Z,5.00
2019-01-21T04:19:05.818Z,4.60
2019-01-21T04:21:56.511Z,4.73
2019-01-21T04:24:41.887Z,4.43
2019-01-21T04:27:06.579Z,5.03
2019-01-21T04:30:00.982Z,4.73
2019-01-21T04:33:16.706Z,4.37
2019-01-21T04:36:39.876Z,4.63
2019-01-21T04:39:25.196Z,4.30
2019-01-21T04:41:57.819Z,4.37
2019-01-21T04:45:05.404Z,4.37
2019-01-21T04:48:06.150Z,4.43
2019-01-21T04:50:42.849Z,4.33
2019-01-21T04:53:39.839Z,3.67
2019-01-21T04:56:45.896Z,4.50
2019-01-21T04:59:44.102Z,4.07
2019-01-21T05:02:23.250Z,4.10
2019-01-21T05:05:53.410Z,4.23
2019-01-21T05:08:56.195Z,3.97
2019-01-21T05:12:08.274Z,3.43
2019-01-21T05:15:34.037Z,4.10
2019-01-21T05:18:30.988Z,3.23
2019-01-21T05:21:42.251Z,3.53
2019-01-21T05:24:26.422Z,3.70
2019-01-21T05:27:35.305Z,3.93
2019-01-21T05:30:40.996Z,3.87
2019-01-21T05:33:22.926Z,4.00
2019-01-21T05:36:19.175Z,3.80
2019-01-21T05:39:43.168Z,3.60
2019-01-21T05:42:54.059Z,3.60
2019-01-21T05:45:39.258Z,3.27
2019-01-21T05:48:30.933Z,3.97
2019-01-21T05:51:35.387Z,3.47
2019-01-21T05:54:55.090Z,3.07
2019-01-21T05:57:52.960Z,3.67
2019-01-21T06:00:49.460Z,3.50
2019-01-21T06:03:55.282Z,3.03
2019-01-21T06:06:49.465Z,3.37
2019-01-21T06:09:26.228Z,3.30
2019-01-21T06:12:08.962Z,3.33
2019-01-21T06:15:29.461Z,3.17
2019-01-21T06:18:28.590Z,4.03
2019-01-21T06:21:42.193Z,3.23
2019-01-21T06:24:43.319Z,3.67
2019-01-21T06:27:56.856Z,3.70
2019-01-21T06:31:17.230Z,2.93
2019-01-21T06:34:16.415Z,2.80
2019-01-21T06:36:53.868Z,3.20
2019-01-21T06:39:17.808Z,3.07
2019-01-21T06:42:23.501Z,3.30
2019-01-21T06:45:37.115Z,3.57
2019-01-21T06:48:40.238Z,3.07
2019-01-21T06:51:40.065Z,3.17
2019-01-21T06:54:21.652Z,3.00
2019-01-21T06:57:22.562Z,3.20
2019-01-21T07:00:09.025Z,2.83
2019-01-21T07:03:04.480Z,3.20
2019-01-21T07:05:53.849Z,2.67
2019-01-21T07:09:02.769Z,3.17
2019-01-21T07:11:55.599Z,3.60
2019-01-21T07:15:05.136Z,2.80
2019-01-21T07:18:03.214Z,3.00
2019-01-21T07:20:59.971Z,2.70
2019-01-21T07:24:41.727Z,3.03
2019-01-21T07:27:31.059Z,2.80
2019-01-21T07:30:34.396Z,2.93
2019-01-21T07:33:51.407Z,3.07
2019-01-21T07:36:48.724Z,3.27
2019-01-21T07:39:51.205Z,3.10
2019-01-21T07:42:28.672Z,3.47
2019-01-21T07:45:05.836Z,3.30
2019-01-21T07:48:16.062Z,2.87
2019-01-21T07:50:43.594Z,3.20
2019-01-21T07:53:53.710Z,3.60
2019-01-21T07:56:51.508Z,3.40
2019-01-21T08:00:07.818Z,3.13
2019-01-21T08:02:49.218Z,3.10
2019-01-21T08:05:42.874Z,3.50
2019-01-21T08:08:37.440Z,4.00
2019-01-21T08:11:42.452Z,4.63
2019-01-21T08:14:35.028Z,4.60
2019-01-21T08:17:29.054Z,4.30
2019-01-21T08:20:20.709Z,4.53
2019-01-21T08:23:30.209Z,4.30
2019-01-21T08:25:58.125Z,3.83
2019-01-21T08:28:41.440Z,4.87
2019-01-21T08:31:46.237Z,5.17
2019-01-21T08:34:47.753Z,5.10
2019-01-21T08:37:43.096Z,4.73
2019-01-21T08:40:32.435Z,4.80
2019-01-21T08:43:10.311Z,5.40
2019-01-21T08:45:31.860Z,4.63
2019-01-21T08:48:54.593Z,4.60
2019-01-21T08:52:02.921Z,3.77
2019-01-21T08:55:19.434Z,3.70
2019-01-21T08:58:23.747Z,3.90
2019-01-21T09:01:28.310Z,4.00
2019-01-21T09:04:36.915Z,4.47
2019-01-21T09:07:17.579Z,4.73
2019-01-21T09:09:55.188Z,4.10
2019-01-21T09:13:03.071Z,4.53
2019-01-21T09:16:09.544Z,4.10
2019-01-21T09:19:12.175Z,4.63
2019-01-21T09:21:52.263Z,4.73
2019-01-21T09:24:51.195Z,4.83
2019-01-21T09:27:47.568Z,5.47
2019-01-21T09:30:48.799Z,4.40
2019-01-21T09:34:07.102Z,5.60
2019-01-21T09:36:46.092Z,5.93
2019-01-21T09:39:51.956Z,5.40
2019-01-21T09:42:46.857Z,5.97
2019-01-21T09:45:11.566Z,5.13
2019-01-21T09:47:14.431Z,4.77
2019-01-21T09:49:17.553Z,4.60
2019-01-21T09:51:23.373Z,5.30
2019-01-21T09:53:28.478Z,5.17
2019-01-21T09:55:34.238Z,5.20
2019-01-21T09:57:40.160Z,4.87
2019-01-21T09:59:46.838Z,5.20
2019-01-21T10:01:56.886Z,5.27
2019-01-21T10:04:02.718Z,4.87
2019-01-21T10:06:10.023Z,5.70
2019-01-21T10:09:27.662Z,5.27
2019-01-21T10:12:14.343Z,4.57
2019-01-21T10:15:19.440Z,4.90
2019-01-21T10:17:52.757Z,5.27
2019-01-21T10:20:38.909Z,5.47
2019-01-21T10:23:40.526Z,6.37
2019-01-21T10:26:30.274Z,6.47
2019-01-21T10:29:45.128Z,6.83
2019-01-21T10:32:45.791Z,6.33
2019-01-21T10:35:46.195Z,6.60
2019-01-21T10:38:56.493Z,7.50
2019-01-21T10:41:58.465Z,7.73
2019-01-21T10:44:31.571Z,7.57
2019-01-21T10:47:34.641Z,8.13
2019-01-21T10:50:34.110Z,8.23
2019-01-21T10:53:33.638Z,8.03
2019-01-21T10:56:51.451Z,8.03
2019-01-21T10:59:55.983Z,8.27
2019-01-21T11:03:00.859Z,9.40
2019-01-21T11:05:57.255Z,9.40
2019-01-21T11:08:37.808Z,29.73
2019-01-21T11:11:28.737Z,13.67
2019-01-21T11:14:26.925Z,13.30
2019-01-21T11:17:22.263Z,29.93
2019-01-21T11:20:09.799Z,13.47
2019-01-21T11:22:59.055Z,17.90
2019-01-21T11:25:40.806Z,40.93
2019-01-21T11:28:28.367Z,22.80
2019-01-21T11:31:29.970Z,18.07
2019-01-21T11:34:43.533Z,13.47
2019-01-21T11:37:28.408Z,36.23
2019-01-21T11:40:29.005Z,14.93
2019-01-21T11:43:37.012Z,26.63
2019-01-21T11:46:18.522Z,31.67
2019-01-21T11:49:29.325Z,36.17
2019-01-21T11:52:31.887Z,18.60
2019-01-21T11:55:33.658Z,14.03
2019-01-21T11:58:20.981Z,13.40
2019-01-21T12:01:11.427Z,15.33
2019-01-21T12:03:37.933Z,12.13
2019-01-21T12:05:53.070Z,13.10
2019-01-21T12:09:10.885Z,14.37
2019-01-21T12:11:51.609Z,12.60
2019-01-21T12:15:04.626Z,12.60
2019-01-21T12:18:04.147Z,12.97
2019-01-21T12:21:08.717Z,13.57
2019-01-21T12:23:40.653Z,13.03
2019-01-21T12:26:13.317Z,12.20
2019-01-21T12:29:28.847Z,13.83
2019-01-21T12:32:11.811Z,14.17
2019-01-21T12:35:14.626Z,13.73
2019-01-21T12:37:41.347Z,15.00
2019-01-21T12:40:31.296Z,14.37
2019-01-21T12:43:41.544Z,13.57
2019-01-21T12:46:39.537Z,13.30
2019-01-21T12:49:26.321Z,13.67
2019-01-21T12:51:49.684Z,12.70
2019-01-21T12:54:45.283Z,14.53
2019-01-21T12:57:42.828Z,13.47
2019-01-21T13:01:11.457Z,13.53
2019-01-21T13:04:05.651Z,12.77
2019-01-21T13:06:44.288Z,12.40
2019-01-21T13:09:23.308Z,12.97
2019-01-21T13:11:42.593Z,12.30
2019-01-21T13:14:31.989Z,13.60
2019-01-21T13:17:05.935Z,13.53
2019-01-21T13:20:10.851Z,14.17
2019-01-21T13:22:44.210Z,14.50
2019-01-21T13:25:37.356Z,13.13
2019-01-21T13:28:40.245Z,12.67
2019-01-21T13:31:27.102Z,12.47
2019-01-21T13:34:08.963Z,13.13
2019-01-21T13:36:38.415Z,12.93
2019-01-21T13:39:37.883Z,12.93
2019-01-21T13:42:25.941Z,13.33
2019-01-21T13:45:25.204Z,12.90
2019-01-21T13:48:37.283Z,12.93
2019-01-21T13:51:35.828Z,12.53
2019-01-21T13:54:40.152Z,12.53
2019-01-21T13:57:16.094Z,12.77
2019-01-21T13:59:55.736Z,13.40
2019-01-21T14:02:37.564Z,12.33
2019-01-21T14:05:31.090Z,11.87
2019-01-21T14:08:46.190Z,12.10
2019-01-21T14:11:30.582Z,12.10
2019-01-21T14:14:02.515Z,12.40
2019-01-21T14:16:36.103Z,12.23
2019-01-21T14:19:49.136Z,12.10
2019-01-21T14:22:37.972Z,11.90
2019-01-21T14:25:34.425Z,12.73
2019-01-21T14:28:50.404Z,12.30
2019-01-21T14:31:37.193Z,12.47
2019-01-21T14:33:55.397Z,13.13
2019-01-21T14:37:07.677Z,12.43
2019-01-21T14:39:43.993Z,12.13
2019-01-21T14:42:46.542Z,13.03
2019-01-21T14:45:32.895Z,11.17
2019-01-21T14:48:18.817Z,11.83
2019-01-21T14:51:30.847Z,11.50
2019-01-21T14:54:14.073Z,12.07
2019-01-21T14:56:41.951Z,13.17
2019-01-21T14:59:38.152Z,13.07
2019-01-21T15:01:55.400Z,13.07
2019-01-21T15:04:57.832Z,12.53
2019-01-21T15:07:22.601Z,12.83
2019-01-21T15:10:42.833Z,13.30
2019-01-21T15:13:33.156Z,12.73
2019-01-21T15:16:24.891Z,11.73
2019-01-21T15:18:49.374Z,12.17
2019-01-21T15:21:11.793Z,11.37
2019-01-21T15:23:36.556Z,12.50
2019-01-21T15:26:24.047Z,12.37
2019-01-21T15:29:05.808Z,11.13
2019-01-21T15:32:16.304Z,12.50
2019-01-21T15:35:09.908Z,11.07
2019-01-21T15:37:53.144Z,12.23
2019-01-21T15:41:13.133Z,12.63
2019-01-21T15:44:08.801Z,12.70
2019-01-21T15:47:00.569Z,14.97
2019-01-21T15:49:40.059Z,12.83
2019-01-21T15:52:20.986Z,13.43
2019-01-21T15:55:25.291Z,12.87
2019-01-21T15:57:56.928Z,14.93
2019-01-21T16:00:52.324Z,13.40
2019-01-21T16:03:59.059Z,13.03
2019-01-21T16:06:59.363Z,12.17
2019-01-21T16:09:47.518Z,11.37
2019-01-21T16:12:27.086Z,11.13
2019-01-21T16:15:10.514Z,11.47
2019-01-21T16:18:07.986Z,10.83
2019-01-21T16:20:44.699Z,10.57
2019-01-21T16:23:23.127Z,10.57
2019-01-21T16:25:56.824Z,9.93
2019-01-21T16:28:44.556Z,10.63
2019-01-21T16:31:23.131Z,11.20
2019-01-21T16:34:43.074Z,10.70
2019-01-21T16:37:45.302Z,9.60
2019-01-21T16:40:34.349Z,10.47
2019-01-21T16:42:39.496Z,10.37
2019-01-21T16:44:46.993Z,11.40
2019-01-21T16:46:52.387Z,11.30
2019-01-21T16:48:57.500Z,11.20
2019-01-21T16:51:03.415Z,11.50
2019-01-21T16:53:08.519Z,11.53
2019-01-21T16:55:19.206Z,11.80
2019-01-21T16:57:24.400Z,12.03
2019-01-21T16:59:29.582Z,12.43
2019-01-21T17:01:34.563Z,13.00
2019-01-21T17:03:39.483Z,11.47
2019-01-21T17:05:44.656Z,12.10
2019-01-21T17:07:49.975Z,12.03
2019-01-21T17:09:54.893Z,11.77
2019-01-21T17:11:59.971Z,13.00
2019-01-21T17:14:09.583Z,13.20
2019-01-21T17:16:14.704Z,11.77
2019-01-21T17:18:19.806Z,12.87
2019-01-21T17:20:25.380Z,13.37
2019-01-21T17:22:31.005Z,12.67
2019-01-21T17:24:36.111Z,12.37
2019-01-21T17:26:41.251Z,13.27
2019-01-21T17:28:46.468Z,12.17
2019-01-21T17:30:51.695Z,11.97
2019-01-21T17:32:56.821Z,12.50
2019-01-21T17:35:02.292Z,12.83
2019-01-21T17:37:08.055Z,12.23
2019-01-21T17:39:13.013Z,12.97
2019-01-21T17:41:18.342Z,13.60
2019-01-21T17:43:23.399Z,13.13
2019-01-21T17:45:28.531Z,12.57
2019-01-21T17:47:33.636Z,12.57
2019-01-21T17:49:39.290Z,12.83
2019-01-21T17:51:44.422Z,12.80
2019-01-21T17:53:51.440Z,12.13
2019-01-21T17:55:56.356Z,12.43
2019-01-21T17:58:01.521Z,12.20
2019-01-21T18:00:10.097Z,12.20
2019-01-21T18:02:15.062Z,12.27
2019-01-21T18:04:20.137Z,12.57
2019-01-21T18:06:25.297Z,13.43
2019-01-21T18:08:30.304Z,13.60
2019-01-21T18:10:35.504Z,13.23
2019-01-21T18:12:41.002Z,12.93
2019-01-21T18:14:46.126Z,12.07
2019-01-21T18:16:51.184Z,13.30
2019-01-21T18:18:56.254Z,13.03
2019-01-21T18:21:01.219Z,13.03
2019-01-21T18:23:06.646Z,12.83
2019-01-21T18:25:12.630Z,13.57
2019-01-21T18:27:18.173Z,15.90
2019-01-21T18:29:24.325Z,14.50
2019-01-21T18:31:29.775Z,13.23
2019-01-21T18:33:35.105Z,13.30
2019-01-21T18:35:40.601Z,12.07
2019-01-21T18:37:45.720Z,13.10
2019-01-21T18:39:54.526Z,12.67
2019-01-21T18:41:59.657Z,12.43
2019-01-21T18:44:04.785Z,13.27
2019-01-21T18:46:09.885Z,12.50
2019-01-21T18:48:14.845Z,12.93
2019-01-21T18:50:20.284Z,12.37
2019-01-21T18:52:25.741Z,12.93
2019-01-21T18:54:30.879Z,12.73
2019-01-21T18:56:35.949Z,14.13
2019-01-21T18:58:41.001Z,13.67
2019-01-21T19:00:45.916Z,12.77
2019-01-21T19:02:51.048Z,13.97
2019-01-21T19:04:56.270Z,13.73
2019-01-21T19:07:01.520Z,13.50
2019-01-21T19:09:09.419Z,13.53
2019-01-21T19:11:14.434Z,14.20
2019-01-21T19:13:19.405Z,13.17
2019-01-21T19:15:31.022Z,14.53
2019-01-21T19:17:35.995Z,14.00
2019-01-21T19:19:41.329Z,15.50
2019-01-21T19:21:46.499Z,14.50
2019-01-21T19:23:51.849Z,16.97
2019-01-21T19:25:56.863Z,16.13
2019-01-21T19:28:02.645Z,13.67
2019-01-21T19:30:12.003Z,15.43
2019-01-21T19:32:17.381Z,14.10
2019-01-21T19:34:22.423Z,14.17
2019-01-21T19:36:27.981Z,14.60
2019-01-21T19:38:33.233Z,15.03
2019-01-21T19:40:38.282Z,14.33
2019-01-21T19:42:43.423Z,16.20
2019-01-21T19:44:48.478Z,16.03
2019-01-21T19:46:53.644Z,14.93
2019-01-21T19:48:58.865Z,15.13
2019-01-21T19:51:03.938Z,17.10
2019-01-21T19:53:09.310Z,15.70
2019-01-21T19:55:20.131Z,14.67
2019-01-21T19:57:25.190Z,14.70
2019-01-21T19:59:30.188Z,14.70
2019-01-21T20:01:35.255Z,14.00
2019-01-21T20:03:40.313Z,15.03
2019-01-21T20:05:45.360Z,14.67
2019-01-21T20:07:50.803Z,16.00
2019-01-21T20:09:55.949Z,14.67
2019-01-21T20:12:01.083Z,15.47
2019-01-21T20:14:06.249Z,15.47
2019-01-21T20:16:11.371Z,15.77
2019-01-21T20:18:16.389Z,14.90
2019-01-21T20:20:28.806Z,14.80
2019-01-21T20:22:34.447Z,14.07
2019-01-21T20:24:39.484Z,13.90
2019-01-21T20:26:44.545Z,14.73
2019-01-21T20:28:50.105Z,14.73
2019-01-21T20:30:55.173Z,15.43
2019-01-21T20:33:00.588Z,16.20
2019-01-21T20:35:07.202Z,16.33
2019-01-21T20:37:12.368Z,16.80
2019-01-21T20:39:17.324Z,17.03
2019-01-21T20:41:22.491Z,16.87
2019-01-21T20:43:27.602Z,17.47
2019-01-21T20:45:32.716Z,15.30
2019-01-21T20:47:37.956Z,16.80
2019-01-21T20:49:42.916Z,16.03
2019-01-21T20:51:48.019Z,16.23
2019-01-21T20:53:53.120Z,15.80
2019-01-21T20:55:58.179Z,15.33
2019-01-21T20:58:03.177Z,16.57
2019-01-21T21:00:12.451Z,17.47
2019-01-21T21:02:17.509Z,15.90
2019-01-21T21:04:22.543Z,17.60
2019-01-21T21:06:27.517Z,17.97
2019-01-21T21:08:32.718Z,17.70
2019-01-21T21:10:37.842Z,18.47
2019-01-21T21:12:42.953Z,15.90
2019-01-21T21:14:48.045Z,16.27
2019-01-21T21:16:53.015Z,16.23
2019-01-21T21:18:58.006Z,17.00
2019-01-21T21:21:03.068Z,16.37
2019-01-21T21:23:08.074Z,15.90
2019-01-21T21:25:15.373Z,15.27
2019-01-21T21:27:20.278Z,17.10
2019-01-21T21:29:25.211Z,15.87
2019-01-21T21:31:30.523Z,16.57
2019-01-21T21:33:35.510Z,16.37
2019-01-21T21:35:40.550Z,17.00
2019-01-21T21:37:45.694Z,16.70
2019-01-21T21:39:51.094Z,17.40
2019-01-21T21:41:56.154Z,16.13
2019-01-21T21:44:01.399Z,16.83
2019-01-21T21:46:06.524Z,16.27
2019-01-21T21:48:11.531Z,17.20
2019-01-21T21:50:26.614Z,16.53
2019-01-21T21:52:31.715Z,15.67
2019-01-21T21:54:36.725Z,16.30
2019-01-21T21:56:41.695Z,17.20
2019-01-21T21:58:47.356Z,17.10
2019-01-21T22:00:52.413Z,16.20
2019-01-21T22:02:57.561Z,15.43
2019-01-21T22:05:08.704Z,16.10
2019-01-21T22:07:13.757Z,15.70
2019-01-21T22:09:18.814Z,16.60
2019-01-21T22:11:23.813Z,17.57
2019-01-21T22:13:28.884Z,16.53
2019-01-21T22:15:33.838Z,17.47
2019-01-21T22:17:38.796Z,17.13
2019-01-21T22:19:43.925Z,17.90
2019-01-21T22:21:48.956Z,16.03
2019-01-21T22:23:53.943Z,17.27
2019-01-21T22:25:58.962Z,16.80
2019-01-21T22:28:04.142Z,16.73
2019-01-21T22:30:16.168Z,17.43
2019-01-21T22:32:21.308Z,17.27
2019-01-21T22:34:26.400Z,16.93
2019-01-21T22:36:31.304Z,18.33
2019-01-21T22:38:36.487Z,16.97
2019-01-21T22:40:41.482Z,17.30
2019-01-21T22:42:46.602Z,16.33
2019-01-21T22:44:51.586Z,16.00
2019-01-21T22:46:56.659Z,16.97
2019-01-21T22:49:01.562Z,15.97
2019-01-21T22:51:06.521Z,16.80
2019-01-21T22:53:11.664Z,17.43
2019-01-21T22:55:17.591Z,16.57
2019-01-21T22:57:22.632Z,16.43
2019-01-21T22:59:27.571Z,16.93
2019-01-21T23:01:34.753Z,16.83
2019-01-21T23:03:39.740Z,16.47
2019-01-21T23:05:45.033Z,16.97
2019-01-21T23:07:49.956Z,17.43
2019-01-21T23:09:54.930Z,17.57
2019-01-21T23:11:59.899Z,15.67
2019-01-21T23:14:06.316Z,16.23
2019-01-21T23:16:11.639Z,17.03
2019-01-21T23:18:16.608Z,18.00
2019-01-21T23:20:21.699Z,17.17
2019-01-21T23:22:26.733Z,16.97
2019-01-21T23:24:31.759Z,16.97
2019-01-21T23:26:36.760Z,16.07
2019-01-21T23:28:41.791Z,15.53
2019-01-21T23:30:46.767Z,16.80
2019-01-21T23:32:51.834Z,16.80
2019-01-21T23:34:56.901Z,16.63
2019-01-21T23:37:01.957Z,15.80
2019-01-21T23:39:08.945Z,15.77
2019-01-21T23:41:14.021Z,17.90
2019-01-21T23:43:19.128Z,17.17
2019-01-21T23:45:24.369Z,17.57
2019-01-21T23:47:29.354Z,17.57
2019-01-21T23:49:34.581Z,16.17
2019-01-21T23:51:39.645Z,16.87
2019-01-21T23:53:44.679Z,15.87
2019-01-21T23:55:49.968Z,16.87
2019-01-21T23:57:55.271Z,15.80
